aviador You're here:

KFLO Decoded Metar

FLORENCE in SC, USA
Report Time2018-01-16 20:53:00
UTC Time2018-01-16 21:07:31
Flight Rules vfr VFR
WindCalm
Visibility9999 m
Phenomena:N/A
Clouds:N/A
Expected CloudBase > 6,800 ft AGL from Temp-Dew spread
CeilingNone
Temp11°C (ISA -4)
Dew Point-6°C (30% RH)
AAT8.3°C
QNH1028 hPa
Density Alt-748 ft
Elevation144 ft
Report Wrong Elevation
Raw Report
METAR KFLO 162053Z AUTO 00000KT 10SM CLR 11/M06 A3037 RMK AO2 SLP282
T01061056 55013=

Extra information for KFLO:More info

Metar Taf Metar & Taf Last 4 Metars F.Rules Stats Wind Profile Meteogram Temp Stats Airport Information Weather charts Add Link Nearby VenuesMetar ALERT Operation Metar Decoded Social comments

AIRNAV info for KFLO